createdAt,value
2023-04-21T00:01:59.022Z,2.78
2023-04-21T00:04:26.191Z,2.53
2023-04-21T00:06:53.384Z,2.85
2023-04-21T00:09:20.920Z,2.65
2023-04-21T00:11:47.877Z,3.20
2023-04-21T00:14:14.805Z,3.70
2023-04-21T00:16:41.594Z,4.32
2023-04-21T00:19:08.697Z,4.90
2023-04-21T00:21:35.779Z,4.80
2023-04-21T00:24:02.600Z,4.45
2023-04-21T00:26:29.356Z,4.15
2023-04-21T00:28:56.243Z,4.45
2023-04-21T00:31:23.031Z,4.13
2023-04-21T00:33:49.803Z,4.75
2023-04-21T00:36:16.598Z,4.57
2023-04-21T00:38:43.348Z,4.85
2023-04-21T00:41:10.157Z,4.60
2023-04-21T00:43:36.920Z,5.10
2023-04-21T00:46:03.737Z,4.57
2023-04-21T00:48:30.791Z,3.30
2023-04-21T00:50:57.524Z,4.60
2023-04-21T00:53:24.366Z,3.90
2023-04-21T00:55:51.673Z,5.00
2023-04-21T00:58:18.446Z,5.13
2023-04-21T01:00:45.652Z,4.80
2023-04-21T01:03:12.634Z,4.82
2023-04-21T01:05:39.876Z,4.20
2023-04-21T01:08:07.191Z,3.92
2023-04-21T01:10:33.955Z,3.95
2023-04-21T01:13:00.705Z,4.90
2023-04-21T01:15:31.113Z,4.47
2023-04-21T01:17:58.456Z,4.70
2023-04-21T01:20:25.295Z,4.78
2023-04-21T01:22:52.184Z,3.75
2023-04-21T01:25:19.954Z,4.53
2023-04-21T01:27:46.896Z,5.00
2023-04-21T01:30:13.668Z,3.83
2023-04-21T01:32:40.629Z,4.15
2023-04-21T01:35:07.753Z,4.32
2023-04-21T01:37:35.081Z,3.95
2023-04-21T01:40:05.549Z,3.97
2023-04-21T01:42:33.720Z,3.80
2023-04-21T01:45:00.990Z,3.95
2023-04-21T01:47:27.871Z,3.92
2023-04-21T01:49:54.711Z,4.53
2023-04-21T01:52:21.837Z,4.10
2023-04-21T01:54:48.739Z,4.25
2023-04-21T01:57:16.052Z,4.18
2023-04-21T01:59:43.734Z,4.13
2023-04-21T02:02:10.676Z,3.35
2023-04-21T02:04:37.671Z,3.80
2023-04-21T02:07:04.502Z,3.90
2023-04-21T02:09:31.998Z,3.50
2023-04-21T02:11:58.828Z,4.82
2023-04-21T02:14:26.323Z,4.43
2023-04-21T02:16:53.443Z,4.55
2023-04-21T02:19:20.685Z,4.13
2023-04-21T02:21:47.817Z,4.45
2023-04-21T02:24:14.575Z,4.90
2023-04-21T02:26:41.341Z,5.65
2023-04-21T02:29:08.098Z,5.15
2023-04-21T02:31:43.092Z,5.43
2023-04-21T02:34:16.851Z,4.90
2023-04-21T02:36:43.762Z,5.65
2023-04-21T02:39:10.639Z,3.78
2023-04-21T02:41:37.453Z,5.22
2023-04-21T02:44:04.404Z,5.15
2023-04-21T02:46:31.247Z,4.57
2023-04-21T02:48:58.042Z,5.35
2023-04-21T02:51:24.881Z,3.50
2023-04-21T02:53:51.654Z,5.43
2023-04-21T02:56:18.458Z,4.82
2023-04-21T02:58:46.003Z,4.60
2023-04-21T03:01:12.821Z,4.45
2023-04-21T03:03:39.636Z,4.90
2023-04-21T03:06:06.836Z,3.28
2023-04-21T03:08:33.627Z,4.15
2023-04-21T03:11:00.995Z,4.40
2023-04-21T03:13:27.785Z,4.40
2023-04-21T03:15:54.517Z,3.28
2023-04-21T03:18:21.310Z,3.90
2023-04-21T03:20:48.124Z,3.90
2023-04-21T03:23:14.889Z,3.10
2023-04-21T03:25:41.757Z,4.18
2023-04-21T03:28:08.700Z,3.10
2023-04-21T03:30:35.525Z,3.70
2023-04-21T03:33:02.395Z,3.30
2023-04-21T03:35:29.252Z,3.15
2023-04-21T03:37:56.013Z,4.30
2023-04-21T03:40:23.174Z,3.08
2023-04-21T03:42:49.962Z,3.13
2023-04-21T03:45:16.770Z,2.78
2023-04-21T03:47:43.544Z,2.83
2023-04-21T03:50:10.333Z,3.63
2023-04-21T03:52:37.233Z,2.65
2023-04-21T03:55:05.220Z,3.10
2023-04-21T03:57:31.956Z,3.28
2023-04-21T03:59:58.681Z,2.85
2023-04-21T04:02:26.039Z,2.95
2023-04-21T04:04:53.136Z,2.78
2023-04-21T04:07:19.962Z,3.00
2023-04-21T04:09:46.686Z,3.05
2023-04-21T04:12:13.456Z,2.40
2023-04-21T04:14:40.201Z,2.10
2023-04-21T04:17:06.934Z,2.47
2023-04-21T04:19:33.964Z,2.70
2023-04-21T04:22:01.380Z,2.35
2023-04-21T04:24:28.611Z,2.33
2023-04-21T04:26:55.611Z,2.20
2023-04-21T04:29:22.844Z,2.47
2023-04-21T04:31:51.169Z,2.10
2023-04-21T04:34:18.119Z,2.42
2023-04-21T04:36:45.848Z,2.60
2023-04-21T04:39:12.577Z,2.42
2023-04-21T04:41:39.473Z,2.10
2023-04-21T04:44:06.409Z,2.28
2023-04-21T04:46:33.206Z,2.88
2023-04-21T04:49:03.364Z,2.42
2023-04-21T04:51:30.357Z,2.08
2023-04-21T04:53:57.093Z,2.58
2023-04-21T04:56:23.971Z,2.50
2023-04-21T04:58:50.869Z,2.53
2023-04-21T05:01:18.101Z,2.35
2023-04-21T05:03:46.903Z,2.58
2023-04-21T05:06:14.473Z,2.80
2023-04-21T05:08:43.939Z,3.30
2023-04-21T05:11:10.854Z,2.80
2023-04-21T05:13:39.803Z,3.00
2023-04-21T05:16:08.020Z,3.33
2023-04-21T05:18:34.777Z,2.72
2023-04-21T05:21:01.484Z,2.83
2023-04-21T05:23:28.452Z,2.65
2023-04-21T05:25:55.192Z,2.80
2023-04-21T05:28:23.299Z,2.60
2023-04-21T05:30:50.115Z,2.95
2023-04-21T05:33:19.697Z,3.30
2023-04-21T05:35:46.520Z,3.25
2023-04-21T05:38:13.295Z,3.03
2023-04-21T05:40:40.119Z,2.42
2023-04-21T05:43:08.475Z,3.03
2023-04-21T05:45:39.919Z,2.95
2023-04-21T05:48:06.897Z,2.90
2023-04-21T05:50:35.711Z,3.28
2023-04-21T05:53:02.697Z,2.50
2023-04-21T05:55:29.534Z,2.90
2023-04-21T05:57:56.548Z,2.95
2023-04-21T06:00:23.285Z,3.17
2023-04-21T06:02:50.121Z,3.00
2023-04-21T06:05:17.130Z,3.20
2023-04-21T06:07:44.162Z,2.70
2023-04-21T06:10:12.078Z,3.30
2023-04-21T06:12:39.131Z,2.83
2023-04-21T06:15:06.665Z,3.40
2023-04-21T06:17:33.442Z,5.80
2023-04-21T06:20:00.314Z,3.70
2023-04-21T06:22:28.388Z,3.70
2023-04-21T06:24:55.164Z,3.72
2023-04-21T06:27:21.877Z,3.25
2023-04-21T06:29:48.568Z,3.53
2023-04-21T06:32:15.329Z,3.45
2023-04-21T06:34:42.060Z,2.88
2023-04-21T06:37:08.704Z,3.10
2023-04-21T06:39:35.427Z,3.40
2023-04-21T06:42:02.519Z,3.30
2023-04-21T06:44:29.934Z,4.93
2023-04-21T06:46:56.689Z,3.42
2023-04-21T06:49:23.445Z,3.70
2023-04-21T06:51:50.173Z,2.50
2023-04-21T06:54:17.085Z,2.80
2023-04-21T06:56:43.799Z,2.95
2023-04-21T06:59:10.530Z,2.42
2023-04-21T07:01:37.411Z,2.60
2023-04-21T07:04:06.318Z,2.50
2023-04-21T07:06:34.697Z,2.90
2023-04-21T07:09:01.557Z,2.58
2023-04-21T07:11:28.791Z,2.30
2023-04-21T07:13:55.896Z,2.75
2023-04-21T07:16:22.772Z,2.80
2023-04-21T07:18:49.541Z,2.10
2023-04-21T07:21:16.280Z,2.25
2023-04-21T07:23:43.004Z,2.90
2023-04-21T07:26:09.792Z,2.42
2023-04-21T07:28:37.449Z,1.50
2023-04-21T07:31:04.709Z,1.92
2023-04-21T07:33:31.443Z,2.53
2023-04-21T07:35:58.203Z,2.10
2023-04-21T07:38:25.155Z,2.28
2023-04-21T07:40:52.072Z,1.92
2023-04-21T07:43:19.956Z,2.00
2023-04-21T07:45:46.766Z,2.53
2023-04-21T07:48:13.670Z,2.40
2023-04-21T07:50:41.441Z,2.15
2023-04-21T07:53:08.155Z,1.60
2023-04-21T07:55:37.212Z,2.75
2023-04-21T07:58:06.850Z,2.10
2023-04-21T08:00:33.683Z,1.70
2023-04-21T08:03:00.544Z,1.90
2023-04-21T08:05:31.406Z,1.67
2023-04-21T08:08:00.276Z,1.55
2023-04-21T08:10:27.015Z,1.83
2023-04-21T08:12:53.718Z,1.40
2023-04-21T08:15:20.593Z,2.17
2023-04-21T08:17:47.384Z,2.50
2023-04-21T08:20:14.177Z,1.92
2023-04-21T08:22:41.267Z,1.48
2023-04-21T08:25:08.751Z,2.20
2023-04-21T08:27:38.293Z,2.05
2023-04-21T08:30:06.128Z,2.08
2023-04-21T08:32:32.911Z,2.08
2023-04-21T08:34:59.648Z,1.60
2023-04-21T08:37:26.378Z,1.70
2023-04-21T08:39:54.696Z,1.52
2023-04-21T08:42:21.574Z,1.55
2023-04-21T08:44:48.366Z,1.67
2023-04-21T08:47:16.238Z,1.30
2023-04-21T08:49:45.387Z,1.33
2023-04-21T08:52:14.484Z,1.60
2023-04-21T08:54:41.421Z,1.60
2023-04-21T08:57:15.258Z,1.58
2023-04-21T08:59:43.167Z,1.92
2023-04-21T09:02:15.187Z,1.67
2023-04-21T09:04:44.174Z,1.65
2023-04-21T09:07:11.445Z,1.20
2023-04-21T09:09:52.831Z,1.80
2023-04-21T09:12:19.958Z,1.77
2023-04-21T09:14:46.969Z,1.42
2023-04-21T09:17:16.598Z,1.70
2023-04-21T09:19:43.822Z,1.67
2023-04-21T09:22:15.658Z,1.40
2023-04-21T09:24:49.637Z,1.55
2023-04-21T09:27:19.184Z,1.38
2023-04-21T09:29:48.322Z,1.25
2023-04-21T09:32:19.759Z,1.63
2023-04-21T09:34:47.130Z,1.52
2023-04-21T09:37:17.406Z,1.30
2023-04-21T09:40:03.288Z,1.65
2023-04-21T09:42:38.977Z,1.38
2023-04-21T09:45:32.479Z,1.15
2023-04-21T09:47:59.616Z,1.67
2023-04-21T09:50:54.812Z,1.20
2023-04-21T09:53:17.857Z,1.65
2023-04-21T09:55:49.435Z,1.40
2023-04-21T09:58:20.399Z,1.60
2023-04-21T10:00:47.930Z,1.80
2023-04-21T10:03:17.299Z,1.60
2023-04-21T10:05:44.279Z,1.15
2023-04-21T10:08:12.702Z,1.10
2023-04-21T10:10:40.019Z,1.10
2023-04-21T10:13:07.570Z,1.35
2023-04-21T10:15:42.013Z,1.60
2023-04-21T10:18:13.426Z,1.38
2023-04-21T10:21:03.978Z,1.67
2023-04-21T10:23:36.178Z,1.33
2023-04-21T10:26:14.210Z,1.40
2023-04-21T10:28:45.737Z,1.27
2023-04-21T10:31:23.241Z,1.10
2023-04-21T10:34:14.169Z,1.50
2023-04-21T10:36:47.048Z,1.42
2023-04-21T10:39:33.634Z,1.40
2023-04-21T10:42:12.600Z,1.50
2023-04-21T10:44:53.063Z,1.27
2023-04-21T10:47:41.296Z,1.40
2023-04-21T10:50:31.885Z,1.50
2023-04-21T10:53:10.155Z,1.38
2023-04-21T10:55:37.426Z,1.58
2023-04-21T10:58:06.606Z,1.40
2023-04-21T11:00:33.580Z,1.40
2023-04-21T11:03:03.090Z,1.38
2023-04-21T11:05:41.439Z,1.73
2023-04-21T11:08:11.478Z,1.52
2023-04-21T11:10:53.376Z,1.58
2023-04-21T11:13:35.035Z,1.40
2023-04-21T11:16:08.487Z,1.33
2023-04-21T11:18:43.822Z,1.17
2023-04-21T11:21:20.247Z,1.50
2023-04-21T11:23:55.211Z,1.23
2023-04-21T11:26:38.357Z,1.30
2023-04-21T11:29:07.558Z,1.30
2023-04-21T11:31:35.424Z,1.60
2023-04-21T11:34:05.464Z,1.33
2023-04-21T11:36:41.784Z,1.60
2023-04-21T11:39:10.726Z,1.23
2023-04-21T11:41:41.799Z,1.33
2023-04-21T11:44:12.214Z,1.48
2023-04-21T11:46:46.747Z,1.45
2023-04-21T11:49:17.208Z,1.40
2023-04-21T11:51:44.827Z,1.20
2023-04-21T11:54:13.337Z,1.40
2023-04-21T11:56:46.623Z,1.20
2023-04-21T11:59:15.982Z,1.60
2023-04-21T12:01:47.369Z,1.27
2023-04-21T12:04:17.297Z,1.70
2023-04-21T12:06:46.333Z,1.60
2023-04-21T12:09:20.867Z,1.20
2023-04-21T12:11:50.117Z,1.50
2023-04-21T12:14:18.495Z,1.40
2023-04-21T12:16:55.396Z,1.40
2023-04-21T12:19:24.601Z,1.80
2023-04-21T12:21:56.607Z,1.60
2023-04-21T12:24:23.430Z,1.38
2023-04-21T12:26:50.210Z,1.40
2023-04-21T12:29:17.040Z,1.20
2023-04-21T12:31:43.860Z,1.20
2023-04-21T12:34:10.643Z,1.30
2023-04-21T12:36:38.724Z,1.40
2023-04-21T12:39:06.306Z,1.35
2023-04-21T12:41:34.739Z,1.30
2023-04-21T12:44:01.728Z,1.45
2023-04-21T12:46:28.826Z,1.48
2023-04-21T12:48:56.204Z,1.30
2023-04-21T12:51:22.976Z,1.25
2023-04-21T12:53:50.090Z,1.27
2023-04-21T12:56:16.882Z,1.10
2023-04-21T12:58:43.595Z,1.10
2023-04-21T13:01:12.368Z,1.60
2023-04-21T13:03:39.907Z,1.60
2023-04-21T13:06:07.075Z,1.30
2023-04-21T13:08:33.962Z,1.45
2023-04-21T13:11:01.249Z,1.40
2023-04-21T13:13:27.995Z,1.38
2023-04-21T13:15:54.749Z,1.25
2023-04-21T13:18:21.469Z,1.30
2023-04-21T13:20:48.259Z,1.30
2023-04-21T13:23:16.235Z,1.33
2023-04-21T13:25:44.963Z,1.17
2023-04-21T13:28:14.033Z,1.25
2023-04-21T13:30:40.862Z,1.30
2023-04-21T13:33:07.768Z,1.10
2023-04-21T13:35:34.554Z,1.10
2023-04-21T13:38:01.259Z,1.50
2023-04-21T13:40:28.352Z,1.00
2023-04-21T13:42:55.079Z,1.40
2023-04-21T13:45:22.088Z,1.40
2023-04-21T13:47:48.834Z,1.50
2023-04-21T13:50:15.695Z,1.38
2023-04-21T13:52:42.391Z,1.20
2023-04-21T13:55:09.461Z,1.30
2023-04-21T13:57:36.378Z,1.40
2023-04-21T14:00:06.678Z,1.30
2023-04-21T14:02:33.606Z,1.30
2023-04-21T14:05:01.084Z,1.50
2023-04-21T14:07:28.093Z,1.35
2023-04-21T14:09:54.888Z,1.40
2023-04-21T14:12:21.727Z,1.48
2023-04-21T14:14:48.551Z,1.30
2023-04-21T14:17:17.499Z,1.80
2023-04-21T14:19:44.458Z,1.58
2023-04-21T14:22:11.271Z,1.77
2023-04-21T14:24:38.080Z,1.75
2023-04-21T14:27:05.447Z,1.52
2023-04-21T14:29:32.775Z,2.40
2023-04-21T14:31:59.954Z,2.10
2023-04-21T14:34:26.851Z,1.60
2023-04-21T14:36:54.328Z,1.95
2023-04-21T14:39:21.300Z,1.67
2023-04-21T14:41:48.390Z,1.60
2023-04-21T14:44:16.038Z,1.77
2023-04-21T14:46:48.076Z,1.90
2023-04-21T14:49:21.895Z,2.05
2023-04-21T14:51:50.240Z,1.80
2023-04-21T14:54:17.010Z,1.77
2023-04-21T14:56:44.068Z,1.75
2023-04-21T14:59:11.107Z,2.60
2023-04-21T15:01:38.706Z,2.45
2023-04-21T15:04:07.156Z,2.97
2023-04-21T15:06:34.272Z,2.47
2023-04-21T15:09:01.174Z,2.60
2023-04-21T15:11:28.176Z,2.42
2023-04-21T15:13:55.253Z,3.03
2023-04-21T15:16:22.394Z,2.88
2023-04-21T15:18:49.886Z,2.78
2023-04-21T15:21:16.683Z,2.95
2023-04-21T15:26:30.793Z,2.90
2023-04-21T15:28:58.052Z,3.53
2023-04-21T15:31:24.930Z,4.30
2023-04-21T15:33:52.352Z,3.85
2023-04-21T15:36:19.163Z,3.55
2023-04-21T15:38:46.238Z,3.38
2023-04-21T15:41:13.558Z,4.15
2023-04-21T15:43:40.536Z,3.67
2023-04-21T15:46:15.502Z,4.53
2023-04-21T15:48:42.979Z,3.95
2023-04-21T15:51:13.270Z,4.43
2023-04-21T15:53:47.808Z,3.63
2023-04-21T15:56:15.797Z,3.40
2023-04-21T15:58:44.274Z,3.90
2023-04-21T16:01:11.488Z,3.65
2023-04-21T16:03:40.697Z,3.45
2023-04-21T16:06:08.451Z,3.38
2023-04-21T16:08:35.560Z,3.72
2023-04-21T16:11:02.666Z,3.80
2023-04-21T16:13:29.750Z,4.35
2023-04-21T16:15:57.537Z,4.07
2023-04-21T16:18:24.832Z,3.00
2023-04-21T16:20:52.017Z,3.63
2023-04-21T16:23:19.425Z,3.80
2023-04-21T16:25:46.255Z,3.75
2023-04-21T16:28:13.347Z,3.50
2023-04-21T16:30:43.631Z,3.58
2023-04-21T16:33:14.686Z,2.80
2023-04-21T16:35:42.124Z,3.90
2023-04-21T16:38:10.474Z,4.00
2023-04-21T16:40:37.552Z,3.85
2023-04-21T16:43:04.491Z,3.78
2023-04-21T16:45:31.384Z,2.95
2023-04-21T16:47:58.651Z,3.63
2023-04-21T16:50:25.730Z,3.45
2023-04-21T16:52:52.496Z,3.50
2023-04-21T16:55:19.417Z,5.15
2023-04-21T16:57:46.517Z,3.83
2023-04-21T17:00:14.190Z,3.40
2023-04-21T17:02:41.012Z,3.50
2023-04-21T17:05:08.394Z,3.50
2023-04-21T17:07:35.445Z,3.40
2023-04-21T17:10:02.323Z,3.40
2023-04-21T17:12:29.149Z,3.60
2023-04-21T17:14:55.992Z,3.13
2023-04-21T17:17:22.992Z,3.15
2023-04-21T17:19:49.725Z,3.30
2023-04-21T17:22:16.667Z,3.28
2023-04-21T17:24:52.552Z,3.00
2023-04-21T17:27:21.423Z,3.75
2023-04-21T17:29:48.372Z,3.88
2023-04-21T17:32:15.329Z,4.05
2023-04-21T17:34:42.101Z,4.13
2023-04-21T17:37:09.180Z,3.80
2023-04-21T17:39:36.027Z,3.28
2023-04-21T17:42:03.003Z,3.33
2023-04-21T17:44:31.074Z,3.92
2023-04-21T17:47:01.506Z,3.22
2023-04-21T17:49:28.299Z,3.28
2023-04-21T17:51:54.988Z,3.15
2023-04-21T17:54:24.451Z,4.03
2023-04-21T17:56:51.250Z,3.72
2023-04-21T17:59:17.973Z,4.03
2023-04-21T18:01:44.668Z,3.50
2023-04-21T18:04:12.096Z,3.95
2023-04-21T18:06:39.177Z,3.38
2023-04-21T18:09:06.202Z,3.13
2023-04-21T18:11:32.983Z,3.78
2023-04-21T18:13:59.981Z,3.33
2023-04-21T18:16:26.770Z,3.95
2023-04-21T18:18:56.886Z,3.25
2023-04-21T18:21:23.596Z,3.40
2023-04-21T18:23:50.320Z,3.33
2023-04-21T18:26:17.102Z,3.50
2023-04-21T18:28:43.879Z,4.50
2023-04-21T18:31:11.110Z,4.50
2023-04-21T18:33:38.284Z,4.35
2023-04-21T18:36:05.898Z,4.50
2023-04-21T18:38:32.552Z,4.43
2023-04-21T18:40:59.280Z,4.53
2023-04-21T18:43:26.107Z,4.53
2023-04-21T18:45:53.003Z,4.53
2023-04-21T18:48:19.729Z,3.58
2023-04-21T18:50:46.975Z,3.75
2023-04-21T18:53:13.669Z,3.92
2023-04-21T18:55:40.620Z,3.55
2023-04-21T18:58:07.409Z,3.30
2023-04-21T19:00:37.560Z,3.13
2023-04-21T19:03:08.857Z,2.92
2023-04-21T19:05:36.837Z,3.97
2023-04-21T19:08:03.557Z,3.72
2023-04-21T19:10:30.321Z,3.00
2023-04-21T19:12:57.168Z,3.45
2023-04-21T19:15:23.984Z,3.78
2023-04-21T19:17:50.849Z,3.08
2023-04-21T19:20:18.499Z,3.60
2023-04-21T19:22:45.266Z,4.22
2023-04-21T19:25:12.504Z,3.92
2023-04-21T19:27:40.971Z,3.40
2023-04-21T19:30:08.821Z,3.17
2023-04-21T19:32:35.803Z,3.85
2023-04-21T19:35:02.582Z,4.57
2023-04-21T19:37:29.427Z,3.85
2023-04-21T19:39:56.336Z,4.75
2023-04-21T19:42:23.051Z,4.03
2023-04-21T19:44:49.704Z,4.82
2023-04-21T19:47:16.757Z,3.35
2023-04-21T19:49:43.500Z,3.85
2023-04-21T19:52:10.144Z,4.07
2023-04-21T19:54:37.115Z,3.53
2023-04-21T19:57:04.059Z,4.43
2023-04-21T19:59:31.085Z,3.67
2023-04-21T20:01:58.675Z,3.65
2023-04-21T20:04:25.656Z,3.88
2023-04-21T20:06:52.993Z,3.90
2023-04-21T20:09:19.855Z,3.78
2023-04-21T20:11:46.580Z,3.60
2023-04-21T20:14:13.346Z,3.65
2023-04-21T20:16:41.303Z,3.35
2023-04-21T20:19:09.055Z,3.97
2023-04-21T20:21:35.774Z,4.05
2023-04-21T20:24:02.593Z,3.58
2023-04-21T20:26:29.488Z,4.35
2023-04-21T20:28:56.232Z,4.20
2023-04-21T20:31:25.551Z,5.15
2023-04-21T20:33:52.650Z,3.88
2023-04-21T20:36:19.534Z,4.88
2023-04-21T20:38:46.655Z,3.92
2023-04-21T20:41:13.611Z,3.50
2023-04-21T20:43:40.533Z,5.07
2023-04-21T20:46:08.952Z,3.78
2023-04-21T20:48:36.008Z,3.95
2023-04-21T20:51:02.885Z,5.13
2023-04-21T20:53:29.584Z,4.20
2023-04-21T20:55:57.382Z,5.43
2023-04-21T20:58:25.134Z,4.22
2023-04-21T21:00:51.995Z,4.82
2023-04-21T21:03:20.337Z,4.55
2023-04-21T21:05:47.634Z,4.63
2023-04-21T21:08:15.299Z,5.30
2023-04-21T21:10:42.175Z,5.35
2023-04-21T21:13:08.899Z,3.95
2023-04-21T21:15:35.949Z,5.32
2023-04-21T21:18:03.381Z,4.43
2023-04-21T21:20:30.135Z,5.07
2023-04-21T21:22:56.895Z,4.97
2023-04-21T21:25:23.661Z,4.63
2023-04-21T21:27:50.353Z,5.95
2023-04-21T21:30:17.164Z,4.45
2023-04-21T21:32:44.008Z,4.15
2023-04-21T21:35:12.064Z,4.90
2023-04-21T21:37:39.300Z,4.72
2023-04-21T21:40:07.231Z,4.72
2023-04-21T21:42:34.057Z,5.18
2023-04-21T21:45:01.115Z,4.97
2023-04-21T21:47:28.141Z,4.80
2023-04-21T21:49:56.109Z,4.70
2023-04-21T21:52:23.005Z,4.78
2023-04-21T21:54:49.839Z,4.80
2023-04-21T21:57:16.994Z,5.32
2023-04-21T21:59:44.129Z,5.63
2023-04-21T22:02:10.915Z,6.03
2023-04-21T22:04:37.986Z,5.28
2023-04-21T22:07:05.287Z,5.00
2023-04-21T22:09:32.166Z,4.45
2023-04-21T22:11:59.121Z,6.38
2023-04-21T22:14:25.960Z,4.97
2023-04-21T22:16:53.356Z,5.13
2023-04-21T22:19:20.538Z,4.88
2023-04-21T22:21:47.483Z,5.20
2023-04-21T22:24:14.532Z,4.82
2023-04-21T22:26:42.066Z,4.07
2023-04-21T22:29:08.772Z,5.13
2023-04-21T22:31:35.646Z,6.07
2023-04-21T22:34:02.650Z,6.55
2023-04-21T22:36:29.702Z,7.82
2023-04-21T22:38:56.407Z,5.15
2023-04-21T22:41:23.465Z,5.15
2023-04-21T22:43:50.210Z,6.80
2023-04-21T22:46:16.985Z,5.22
2023-04-21T22:48:46.646Z,4.95
2023-04-21T22:51:18.409Z,6.25
2023-04-21T22:53:45.126Z,6.00
2023-04-21T22:56:11.842Z,5.60
2023-04-21T22:58:38.638Z,4.25
2023-04-21T23:01:05.503Z,6.05
2023-04-21T23:03:32.423Z,5.80
2023-04-21T23:05:59.317Z,6.22
2023-04-21T23:08:26.389Z,6.35
2023-04-21T23:10:53.106Z,6.97
2023-04-21T23:13:19.802Z,5.43
2023-04-21T23:15:46.554Z,7.63
2023-04-21T23:18:13.281Z,5.72
2023-04-21T23:20:40.007Z,6.47
2023-04-21T23:23:06.952Z,6.80
2023-04-21T23:25:33.615Z,6.32
2023-04-21T23:28:00.385Z,6.47
2023-04-21T23:30:27.166Z,5.90
2023-04-21T23:32:53.979Z,7.50
2023-04-21T23:35:21.024Z,5.00
2023-04-21T23:37:48.798Z,5.55
2023-04-21T23:40:15.547Z,5.72
2023-04-21T23:42:42.258Z,5.43
2023-04-21T23:45:14.489Z,5.45
2023-04-21T23:47:41.222Z,6.45
2023-04-21T23:50:08.329Z,6.18
2023-04-21T23:52:35.112Z,5.78
2023-04-21T23:55:02.060Z,5.40
2023-04-21T23:57:28.929Z,5.60
2023-04-21T23:59:55.621Z,7.18
